Time;durP1;ratioP1;P1;durP2;ratioP2;P2;SDS_P1;SDS_P2;PMS_P1;PMS_P2;Temp;Humidity;BMP_temperature;BMP_pressure;BME280_temperature;BME280_humidity;BME280_pressure;Samples;Min_cycle;Max_cycle;Signal;HPM_P1;HPM_P2
2021/03/15 00:02:08;;;;;;;8.05;1.55;;;;;;;;;;5036747;28;20717;-56
2021/03/15 00:04:34;;;;;;;6.53;2.00;;;;;;;;;;5034888;28;20135;-54
2021/03/15 00:07:00;;;;;;;10.02;2.70;;;;;;;;;;5035685;28;20094;-55
2021/03/15 00:09:26;;;;;;;9.77;3.30;;;;;;;;;;5034326;28;20048;-54
2021/03/15 00:11:53;;;;;;;15.68;6.63;;;;;;;;;;5033294;28;20044;-52
2021/03/15 00:14:22;;;;;;;18.02;5.10;;;;;;;;;;5033829;28;20059;-55
2021/03/15 00:16:48;;;;;;;6.10;2.80;;;;;;;;;;5033393;28;20468;-56
2021/03/15 00:19:14;;;;;;;5.90;2.08;;;;;;;;;;5033435;28;20041;-53
2021/03/15 00:21:40;;;;;;;7.63;1.90;;;;;;;;;;5033412;28;20056;-53
2021/03/15 00:24:07;;;;;;;4.32;1.63;;;;;;;;;;5034227;28;20068;-54
2021/03/15 00:26:33;;;;;;;5.90;1.67;;;;;;;;;;5033823;28;20068;-53
2021/03/15 00:28:59;;;;;;;12.07;1.80;;;;;;;;;;5034856;28;20040;-52
2021/03/15 00:31:25;;;;;;;5.07;1.60;;;;;;;;;;5033252;28;20045;-55
2021/03/15 00:33:51;;;;;;;8.80;2.20;;;;;;;;;;5033649;28;20063;-57
2021/03/15 00:36:17;;;;;;;7.00;2.15;;;;;;;;;;5034298;28;20045;-56
2021/03/15 00:38:42;;;;;;;8.20;2.45;;;;;;;;;;5034515;28;20048;-54
2021/03/15 00:41:08;;;;;;;8.00;2.00;;;;;;;;;;5035434;28;20037;-55
2021/03/15 00:43:34;;;;;;;6.50;1.98;;;;;;;;;;5033088;28;20045;-58
2021/03/15 00:46:00;;;;;;;4.65;1.45;;;;;;;;;;5034963;28;20052;-53
2021/03/15 00:48:26;;;;;;;5.00;1.38;;;;;;;;;;5031414;28;20044;-54
2021/03/15 00:50:52;;;;;;;6.03;1.77;;;;;;;;;;5032386;28;20133;-54
2021/03/15 00:53:19;;;;;;;8.88;1.70;;;;;;;;;;5032654;28;20409;-54
2021/03/15 00:55:45;;;;;;;8.23;1.88;;;;;;;;;;5028437;28;20052;-50
2021/03/15 00:58:11;;;;;;;11.50;1.70;;;;;;;;;;5034788;28;20045;-51
2021/03/15 01:00:38;;;;;;;16.25;3.13;;;;;;;;;;5031137;28;20079;-54
2021/03/15 01:03:04;;;;;;;14.35;2.78;;;;;;;;;;5031621;28;20811;-55
2021/03/15 01:05:38;;;;;;;10.32;2.00;;;;;;;;;;5033058;28;20444;-54
2021/03/15 01:08:14;;;;;;;11.48;2.00;;;;;;;;;;5034829;28;20482;-52
2021/03/15 01:10:41;;;;;;;9.05;1.67;;;;;;;;;;5033031;28;20112;-51
2021/03/15 01:13:08;;;;;;;9.65;1.70;;;;;;;;;;5032122;28;20069;-54
2021/03/15 01:15:35;;;;;;;12.98;3.30;;;;;;;;;;5034352;28;20041;-53
2021/03/15 01:18:01;;;;;;;9.35;3.80;;;;;;;;;;5031643;28;20041;-54
2021/03/15 01:20:27;;;;;;;9.70;2.20;;;;;;;;;;5026338;28;20582;-51
2021/03/15 01:22:55;;;;;;;6.00;1.70;;;;;;;;;;5033184;28;20064;-56
2021/03/15 01:25:24;;;;;;;5.25;1.60;;;;;;;;;;5029988;28;20132;-53
2021/03/15 01:27:50;;;;;;;10.80;2.10;;;;;;;;;;5032638;28;20466;-56
2021/03/15 01:30:16;;;;;;;9.20;1.90;;;;;;;;;;5032939;28;20128;-58
2021/03/15 01:32:42;;;;;;;7.28;3.13;;;;;;;;;;5029106;28;20044;-58
2021/03/15 01:35:09;;;;;;;11.43;4.55;;;;;;;;;;5031246;28;20063;-59
2021/03/15 01:37:35;;;;;;;13.65;4.45;;;;;;;;;;5028438;28;20051;-57
2021/03/15 01:40:01;;;;;;;21.58;3.35;;;;;;;;;;5030886;28;20044;-56
2021/03/15 01:42:27;;;;;;;8.93;1.90;;;;;;;;;;5030456;28;20133;-54
2021/03/15 01:44:53;;;;;;;8.57;2.00;;;;;;;;;;5030804;28;20041;-58
2021/03/15 01:47:19;;;;;;;6.05;2.00;;;;;;;;;;5028178;28;20495;-52
2021/03/15 01:49:51;;;;;;;8.25;1.90;;;;;;;;;;5031679;28;20161;-56
2021/03/15 01:52:17;;;;;;;9.15;2.15;;;;;;;;;;5031466;28;20396;-54
2021/03/15 01:54:43;;;;;;;9.85;2.88;;;;;;;;;;5030904;28;20045;-57
2021/03/15 01:57:09;;;;;;;14.05;3.20;;;;;;;;;;5032960;28;20043;-55
2021/03/15 01:59:35;;;;;;;14.65;3.95;;;;;;;;;;5031800;28;20037;-57
2021/03/15 02:02:01;;;;;;;19.15;3.60;;;;;;;;;;5031599;28;20488;-55
2021/03/15 02:04:27;;;;;;;19.17;4.88;;;;;;;;;;5031330;28;20060;-57
2021/03/15 02:06:53;;;;;;;27.65;4.35;;;;;;;;;;5032302;28;20201;-57
2021/03/15 02:09:19;;;;;;;34.53;5.25;;;;;;;;;;5027129;28;20072;-57
2021/03/15 02:12:03;;;;;;;42.60;5.25;;;;;;;;;;5031841;28;20037;-56
2021/03/15 02:14:35;;;;;;;45.33;5.20;;;;;;;;;;5031536;28;20030;-58
2021/03/15 02:17:39;;;;;;;65.53;6.53;;;;;;;;;;5031729;28;20112;-58
2021/03/15 02:20:04;;;;;;;;;;;;;;;;;;4967135;28;20050;-59
2021/03/15 02:22:33;;;;;;;40.85;5.28;;;;;;;;;;4967184;28;19922;-57
2021/03/15 02:25:10;;;;;;;34.10;5.53;;;;;;;;;;4993944;28;20053;-57
2021/03/15 02:27:39;;;;;;;45.10;6.40;;;;;;;;;;4998997;28;20164;-56
2021/03/15 02:30:21;;;;;;;26.63;4.93;;;;;;;;;;5031658;28;20575;-58
2021/03/15 02:33:05;;;;;;;26.85;6.13;;;;;;;;;;5029687;28;20152;-57
2021/03/15 02:35:33;;;;;;;27.80;4.70;;;;;;;;;;5030733;28;20056;-57
2021/03/15 02:38:07;;;;;;;18.63;4.22;;;;;;;;;;5012220;28;20167;-57
2021/03/15 02:40:35;;;;;;;13.95;2.88;;;;;;;;;;5030879;28;20049;-57
2021/03/15 02:43:05;;;;;;;9.35;2.13;;;;;;;;;;5033383;28;20099;-57
2021/03/15 02:45:32;;;;;;;7.03;1.58;;;;;;;;;;5032541;28;20103;-55
2021/03/15 02:47:59;;;;;;;8.45;2.00;;;;;;;;;;5032440;28;20818;-54
2021/03/15 02:50:26;;;;;;;10.05;2.03;;;;;;;;;;5031140;28;20125;-56
2021/03/15 02:53:02;;;;;;;9.57;2.13;;;;;;;;;;5031759;28;20036;-61
2021/03/15 02:55:28;;;;;;;9.25;2.75;;;;;;;;;;5029997;28;20124;-56
2021/03/15 02:57:55;;;;;;;10.05;2.25;;;;;;;;;;5027481;28;20187;-55
2021/03/15 03:00:22;;;;;;;16.38;4.00;;;;;;;;;;5031070;28;20037;-59
2021/03/15 03:02:48;;;;;;;15.55;3.75;;;;;;;;;;5032523;28;20041;-57
2021/03/15 03:05:16;;;;;;;13.77;3.75;;;;;;;;;;5033075;28;20110;-58
2021/03/15 03:07:44;;;;;;;12.70;3.60;;;;;;;;;;5015554;28;20041;-56
2021/03/15 03:10:10;;;;;;;21.85;4.43;;;;;;;;;;5032634;28;20555;-56
2021/03/15 03:12:37;;;;;;;36.15;5.05;;;;;;;;;;5029730;28;20048;-57
2021/03/15 03:15:05;;;;;;;17.90;4.00;;;;;;;;;;5033325;28;20033;-56
2021/03/15 03:17:34;;;;;;;20.58;4.60;;;;;;;;;;5031281;28;20126;-55
2021/03/15 03:20:00;;;;;;;22.77;4.88;;;;;;;;;;5031342;28;20095;-57
2021/03/15 03:22:27;;;;;;;30.50;4.70;;;;;;;;;;5031397;28;20033;-56
2021/03/15 03:24:54;;;;;;;32.20;5.00;;;;;;;;;;5015408;28;20091;-57
2021/03/15 03:27:21;;;;;;;33.40;4.95;;;;;;;;;;5032094;28;20398;-56
2021/03/15 03:29:48;;;;;;;36.92;5.85;;;;;;;;;;5032611;28;20044;-57
2021/03/15 03:32:15;;;;;;;33.65;5.97;;;;;;;;;;5031327;28;20041;-54
2021/03/15 03:34:42;;;;;;;25.08;4.43;;;;;;;;;;5009082;28;20430;-55
2021/03/15 03:37:08;;;;;;;54.70;6.13;;;;;;;;;;5032246;28;20041;-57
2021/03/15 03:39:34;;;;;;;44.03;5.57;;;;;;;;;;5029843;28;20506;-57
2021/03/15 03:42:00;;;;;;;27.50;4.53;;;;;;;;;;5030534;28;20034;-58
2021/03/15 03:44:29;;;;;;;28.98;4.03;;;;;;;;;;5011927;28;20521;-56
2021/03/15 03:46:55;;;;;;;25.55;4.40;;;;;;;;;;5018317;28;20029;-54
2021/03/15 03:49:21;;;;;;;21.58;4.25;;;;;;;;;;5024337;28;20037;-56
2021/03/15 03:52:00;;;;;;;21.30;3.55;;;;;;;;;;5024394;28;20080;-57
2021/03/15 03:54:46;;;;;;;16.48;4.20;;;;;;;;;;5009462;28;20052;-54
2021/03/15 03:57:15;;;;;;;25.45;5.40;;;;;;;;;;5028922;28;20041;-58
2021/03/15 03:59:44;;;;;;;19.65;4.07;;;;;;;;;;5016366;28;20033;-55
2021/03/15 04:02:11;;;;;;;20.27;3.60;;;;;;;;;;4994067;28;20524;-57
2021/03/15 04:04:39;;;;;;;22.52;5.25;;;;;;;;;;5001957;28;20125;-54
2021/03/15 04:07:07;;;;;;;21.58;3.70;;;;;;;;;;5029013;28;20548;-56
2021/03/15 04:09:34;;;;;;;21.05;3.85;;;;;;;;;;5009453;28;20044;-57
2021/03/15 04:12:03;;;;;;;17.17;4.00;;;;;;;;;;5014840;28;20029;-56
2021/03/15 04:14:33;;;;;;;15.02;3.72;;;;;;;;;;5007732;28;20048;-57
2021/03/15 04:17:00;;;;;;;16.40;3.85;;;;;;;;;;5031806;28;20064;-56
2021/03/15 04:19:29;;;;;;;20.73;3.63;;;;;;;;;;5031372;28;20029;-58
2021/03/15 04:22:05;;;;;;;20.75;3.50;;;;;;;;;;5002632;28;20053;-59
2021/03/15 04:24:32;;;;;;;19.58;3.58;;;;;;;;;;5008362;28;20501;-55
2021/03/15 04:26:59;;;;;;;14.70;4.00;;;;;;;;;;5027214;28;20052;-57
2021/03/15 04:29:27;;;;;;;26.77;3.90;;;;;;;;;;5031159;28;20040;-57
2021/03/15 04:31:53;;;;;;;14.02;3.13;;;;;;;;;;5028638;28;20037;-58
2021/03/15 04:34:20;;;;;;;31.00;6.50;;;;;;;;;;5032293;28;20110;-56
2021/03/15 04:37:06;;;;;;;19.08;4.05;;;;;;;;;;5028472;28;20086;-57
2021/03/15 04:39:34;;;;;;;20.33;3.60;;;;;;;;;;4987946;28;20035;-57
2021/03/15 04:42:00;;;;;;;17.23;4.07;;;;;;;;;;4986954;28;20050;-58
2021/03/15 04:44:26;;;;;;;17.10;3.90;;;;;;;;;;4981698;28;20049;-55
2021/03/15 04:46:53;;;;;;;19.27;3.53;;;;;;;;;;4978448;28;20078;-58
2021/03/15 04:49:19;;;;;;;19.38;3.92;;;;;;;;;;4968351;28;20113;-54
2021/03/15 04:51:45;;;;;;;28.08;3.88;;;;;;;;;;4977201;28;20050;-57
2021/03/15 04:54:11;;;;;;;20.30;4.07;;;;;;;;;;4983921;28;20065;-58
2021/03/15 04:56:38;;;;;;;27.08;3.97;;;;;;;;;;4980337;28;20667;-55
2021/03/15 04:59:04;;;;;;;17.70;3.63;;;;;;;;;;4976494;28;20035;-56
2021/03/15 05:01:34;;;;;;;14.52;3.42;;;;;;;;;;4971913;28;20038;-56
2021/03/15 05:04:00;;;;;;;18.35;3.75;;;;;;;;;;4984100;28;20046;-57
2021/03/15 05:06:27;;;;;;;15.70;3.92;;;;;;;;;;4982089;28;20066;-57
2021/03/15 05:08:54;;;;;;;22.77;3.88;;;;;;;;;;4987440;28;20125;-57
2021/03/15 05:11:25;;;;;;;12.20;3.30;;;;;;;;;;5016868;28;20383;-57
2021/03/15 05:13:52;;;;;;;20.55;3.17;;;;;;;;;;5037031;28;20166;-55
2021/03/15 05:16:19;;;;;;;16.33;3.20;;;;;;;;;;5034872;28;20115;-54
2021/03/15 05:18:45;;;;;;;14.88;3.40;;;;;;;;;;5035518;28;20457;-57
2021/03/15 05:21:11;;;;;;;15.13;3.10;;;;;;;;;;5034534;28;20037;-58
2021/03/15 05:23:38;;;;;;;18.65;3.83;;;;;;;;;;5034550;28;20071;-56
2021/03/15 05:26:04;;;;;;;11.80;2.92;;;;;;;;;;5036427;28;20045;-57
2021/03/15 05:28:31;;;;;;;10.45;3.10;;;;;;;;;;5005627;28;20041;-57
2021/03/15 05:31:01;;;;;;;12.32;3.30;;;;;;;;;;5034427;28;20124;-56
2021/03/15 05:33:27;;;;;;;16.55;3.42;;;;;;;;;;5017673;28;20041;-56
2021/03/15 05:35:55;;;;;;;7.88;2.67;;;;;;;;;;5036044;28;20137;-57
2021/03/15 05:38:21;;;;;;;14.65;2.95;;;;;;;;;;5037079;28;20068;-58
2021/03/15 05:40:47;;;;;;;7.82;2.72;;;;;;;;;;5035275;28;20041;-56
2021/03/15 05:43:26;;;;;;;9.50;3.40;;;;;;;;;;5027497;28;20099;-56
2021/03/15 05:46:07;;;;;;;9.48;3.30;;;;;;;;;;5027409;28;20511;-56
2021/03/15 05:49:00;;;;;;;22.88;3.58;;;;;;;;;;5025049;28;20033;-57
2021/03/15 05:51:29;;;;;;;9.98;3.28;;;;;;;;;;5028410;28;20053;-57
2021/03/15 05:54:16;;;;;;;12.95;3.42;;;;;;;;;;5026772;28;20084;-58
2021/03/15 05:56:52;;;;;;;17.85;4.15;;;;;;;;;;5027316;28;20045;-58
2021/03/15 05:59:31;;;;;;;18.75;3.40;;;;;;;;;;5036697;28;20049;-57
2021/03/15 06:02:26;;;;;;;20.20;3.63;;;;;;;;;;5037738;28;20030;-57
2021/03/15 06:05:10;;;;;;;16.20;3.22;;;;;;;;;;5030722;28;20148;-56
2021/03/15 06:07:36;;;;;;;16.10;3.08;;;;;;;;;;5008659;28;22064;-56
2021/03/15 06:10:07;;;;;;;10.18;2.83;;;;;;;;;;5032325;28;20081;-53
2021/03/15 06:12:45;;;;;;;14.75;2.85;;;;;;;;;;5032973;28;20137;-57
2021/03/15 06:15:12;;;;;;;13.20;2.90;;;;;;;;;;5030701;28;20037;-54
2021/03/15 06:17:39;;;;;;;12.93;4.82;;;;;;;;;;5029104;28;20515;-53
2021/03/15 06:20:06;;;;;;;13.50;4.90;;;;;;;;;;5029048;28;20041;-56
2021/03/15 06:22:33;;;;;;;9.50;3.83;;;;;;;;;;5023072;28;20120;-54
2021/03/15 06:25:00;;;;;;;28.05;6.80;;;;;;;;;;5027846;28;20068;-56
2021/03/15 06:27:27;;;;;;;11.90;5.20;;;;;;;;;;5026106;28;20082;-54
2021/03/15 06:29:53;;;;;;;15.15;4.72;;;;;;;;;;5029844;28;20048;-53
2021/03/15 06:32:19;;;;;;;26.55;5.55;;;;;;;;;;5024031;28;20033;-53
2021/03/15 06:34:46;;;;;;;10.50;3.85;;;;;;;;;;5027739;28;20041;-55
2021/03/15 06:37:13;;;;;;;12.30;4.38;;;;;;;;;;5020273;28;20042;-55
2021/03/15 06:39:42;;;;;;;18.00;4.60;;;;;;;;;;5018635;28;20669;-56
2021/03/15 06:42:09;;;;;;;20.77;5.57;;;;;;;;;;5026205;28;20041;-54
2021/03/15 06:44:35;;;;;;;18.10;4.63;;;;;;;;;;5024060;28;20506;-54
2021/03/15 06:47:01;;;;;;;21.70;4.90;;;;;;;;;;5020891;28;20065;-55
2021/03/15 06:49:27;;;;;;;14.95;3.90;;;;;;;;;;5014998;28;20175;-56
2021/03/15 06:52:06;;;;;;;14.68;3.50;;;;;;;;;;5023334;28;20128;-57
2021/03/15 06:54:32;;;;;;;7.18;1.80;;;;;;;;;;5030096;28;20073;-54
2021/03/15 06:57:31;;;;;;;6.20;1.73;;;;;;;;;;5008402;28;20037;-53
2021/03/15 06:59:57;;;;;;;4.13;1.50;;;;;;;;;;4971881;28;20040;-53
2021/03/15 07:02:27;;;;;;;3.78;1.70;;;;;;;;;;5024002;28;20115;-54
2021/03/15 07:04:54;;;;;;;4.68;1.33;;;;;;;;;;5031349;28;20057;-51
2021/03/15 07:07:27;;;;;;;4.53;1.45;;;;;;;;;;5028994;28;20098;-54
2021/03/15 07:09:54;;;;;;;3.85;1.42;;;;;;;;;;5025783;28;20353;-52
2021/03/15 07:12:20;;;;;;;5.13;1.50;;;;;;;;;;5032697;28;20037;-54
2021/03/15 07:14:47;;;;;;;4.85;1.30;;;;;;;;;;5032157;28;20052;-55
2021/03/15 07:17:20;;;;;;;4.70;1.25;;;;;;;;;;5026877;28;21899;-54
2021/03/15 07:19:46;;;;;;;5.37;1.27;;;;;;;;;;5021546;28;20608;-55
2021/03/15 07:22:22;;;;;;;4.80;1.35;;;;;;;;;;5033064;28;20045;-54
2021/03/15 07:25:08;;;;;;;7.38;1.52;;;;;;;;;;5030521;28;20051;-56
2021/03/15 07:27:34;;;;;;;7.25;1.42;;;;;;;;;;5029208;28;20508;-55
2021/03/15 07:30:19;;;;;;;5.15;1.50;;;;;;;;;;5021475;28;20045;-55
2021/03/15 07:32:44;;;;;;;5.35;1.20;;;;;;;;;;5022299;28;20063;-56
2021/03/15 07:35:23;;;;;;;4.38;1.45;;;;;;;;;;5018956;28;20029;-56
2021/03/15 07:37:49;;;;;;;3.83;1.30;;;;;;;;;;5020388;28;20041;-54
2021/03/15 07:40:35;;;;;;;4.10;1.30;;;;;;;;;;5020207;28;20049;-56
2021/03/15 07:43:03;;;;;;;3.80;1.38;;;;;;;;;;5019192;28;20049;-54
2021/03/15 07:45:29;;;;;;;4.35;1.30;;;;;;;;;;5028702;28;20049;-53
2021/03/15 07:48:03;;;;;;;4.28;1.40;;;;;;;;;;5036067;28;20041;-56
2021/03/15 07:50:30;;;;;;;5.82;1.40;;;;;;;;;;5032865;28;20509;-56
2021/03/15 07:52:56;;;;;;;6.45;1.38;;;;;;;;;;5035754;28;20041;-55
2021/03/15 07:55:31;;;;;;;5.18;1.33;;;;;;;;;;5034317;28;20046;-55
2021/03/15 07:57:57;;;;;;;18.02;2.08;;;;;;;;;;5034595;28;20037;-54
2021/03/15 08:00:23;;;;;;;6.78;1.67;;;;;;;;;;5034066;28;20044;-56
2021/03/15 08:02:49;;;;;;;7.78;1.27;;;;;;;;;;5034822;28;20429;-56
2021/03/15 08:05:15;;;;;;;15.00;2.08;;;;;;;;;;5034176;28;20148;-55
2021/03/15 08:07:41;;;;;;;5.78;1.90;;;;;;;;;;5032310;28;20058;-52
2021/03/15 08:10:07;;;;;;;7.47;1.45;;;;;;;;;;5033068;28;20843;-56
2021/03/15 08:12:37;;;;;;;5.55;1.38;;;;;;;;;;5024686;28;20045;-54
2021/03/15 08:15:06;;;;;;;6.38;1.60;;;;;;;;;;5035768;28;20111;-56
2021/03/15 08:17:33;;;;;;;11.50;1.50;;;;;;;;;;5033611;28;20065;-58
2021/03/15 08:20:01;;;;;;;4.95;1.40;;;;;;;;;;5034817;28;20059;-53
2021/03/15 08:22:28;;;;;;;4.90;1.20;;;;;;;;;;5028119;28;20155;-53
2021/03/15 08:24:56;;;;;;;6.43;1.50;;;;;;;;;;5027966;28;20048;-53
2021/03/15 08:27:23;;;;;;;4.57;1.30;;;;;;;;;;5015362;28;20688;-56
2021/03/15 08:29:51;;;;;;;3.65;1.50;;;;;;;;;;5033645;28;20044;-52
2021/03/15 08:32:17;;;;;;;6.22;1.40;;;;;;;;;;5022328;28;20263;-55
2021/03/15 08:34:43;;;;;;;4.00;1.40;;;;;;;;;;5017759;28;20037;-55
2021/03/15 08:37:10;;;;;;;6.63;1.50;;;;;;;;;;5001464;28;20044;-56
2021/03/15 08:39:38;;;;;;;3.92;1.15;;;;;;;;;;5031357;28;20058;-56
2021/03/15 08:42:24;;;;;;;4.80;1.42;;;;;;;;;;5034627;28;20040;-55
2021/03/15 08:44:50;;;;;;;3.92;1.30;;;;;;;;;;5016456;28;20072;-56
2021/03/15 08:47:36;;;;;;;5.72;1.20;;;;;;;;;;5034759;28;20600;-56
2021/03/15 08:50:21;;;;;;;6.80;1.25;;;;;;;;;;5031711;28;20053;-55
2021/03/15 08:52:47;;;;;;;3.78;1.75;;;;;;;;;;5034310;28;20040;-57
2021/03/15 08:55:33;;;;;;;3.50;1.10;;;;;;;;;;5034677;28;20033;-56
2021/03/15 08:57:59;;;;;;;6.00;1.27;;;;;;;;;;5031596;28;20032;-53
2021/03/15 09:00:34;;;;;;;4.65;1.10;;;;;;;;;;5032241;28;20048;-53
2021/03/15 09:03:00;;;;;;;6.40;1.27;;;;;;;;;;5032865;28;20045;-56
2021/03/15 09:05:27;;;;;;;4.72;1.02;;;;;;;;;;5027275;28;20052;-54
2021/03/15 09:07:55;;;;;;;6.43;1.10;;;;;;;;;;5033521;28;20168;-53
2021/03/15 09:10:24;;;;;;;4.97;1.00;;;;;;;;;;5032651;28;20029;-54
2021/03/15 09:13:08;;;;;;;5.70;1.20;;;;;;;;;;5029059;28;20040;-55
2021/03/15 09:15:34;;;;;;;3.45;1.10;;;;;;;;;;5028781;28;20402;-53
2021/03/15 09:18:00;;;;;;;4.45;1.85;;;;;;;;;;5029052;28;20059;-57
2021/03/15 09:20:35;;;;;;;3.45;1.10;;;;;;;;;;5035550;28;20061;-55
2021/03/15 09:23:19;;;;;;;3.72;1.15;;;;;;;;;;5018937;28;20558;-54
2021/03/15 09:25:45;;;;;;;3.33;1.15;;;;;;;;;;5028151;28;20049;-57
2021/03/15 09:28:14;;;;;;;3.88;1.08;;;;;;;;;;5028073;28;20552;-56
2021/03/15 09:30:40;;;;;;;4.82;1.40;;;;;;;;;;5040674;28;20041;-57
2021/03/15 09:33:05;;;;;;;5.03;1.00;;;;;;;;;;5023359;28;20045;-57
2021/03/15 09:35:32;;;;;;;4.45;1.30;;;;;;;;;;5033104;28;20058;-59
2021/03/15 09:37:59;;;;;;;5.35;1.23;;;;;;;;;;5037061;28;20103;-56
2021/03/15 09:40:28;;;;;;;5.25;1.10;;;;;;;;;;5032757;28;20041;-56
2021/03/15 09:42:54;;;;;;;3.42;1.27;;;;;;;;;;5035812;28;20045;-57
2021/03/15 09:45:36;;;;;;;6.40;1.33;;;;;;;;;;5034030;28;20077;-55
2021/03/15 09:48:04;;;;;;;4.32;1.20;;;;;;;;;;5032652;28;20082;-56
2021/03/15 09:50:33;;;;;;;3.67;1.00;;;;;;;;;;5030664;28;20048;-55
2021/03/15 09:53:05;;;;;;;3.80;0.98;;;;;;;;;;5030621;28;20425;-55
2021/03/15 09:55:31;;;;;;;3.13;1.00;;;;;;;;;;5029745;28;20045;-57
2021/03/15 09:58:04;;;;;;;3.72;1.23;;;;;;;;;;5018754;28;20389;-54
2021/03/15 10:00:30;;;;;;;2.80;1.00;;;;;;;;;;5030133;28;20077;-55
2021/03/15 10:02:56;;;;;;;3.45;0.93;;;;;;;;;;5031524;28;20203;-56
2021/03/15 10:05:22;;;;;;;4.30;1.10;;;;;;;;;;5026606;28;20053;-54
2021/03/15 10:07:48;;;;;;;7.15;1.00;;;;;;;;;;5025230;28;20069;-54
2021/03/15 10:10:15;;;;;;;7.15;1.40;;;;;;;;;;5025862;28;20108;-53
2021/03/15 10:12:41;;;;;;;4.82;1.10;;;;;;;;;;5020648;28;21018;-54
2021/03/15 10:15:11;;;;;;;4.72;1.30;;;;;;;;;;5018408;28;20509;-55
2021/03/15 10:17:37;;;;;;;2.80;1.00;;;;;;;;;;5025115;28;20052;-55
2021/03/15 10:20:05;;;;;;;3.17;1.10;;;;;;;;;;5021876;28;20179;-55
2021/03/15 10:22:31;;;;;;;2.83;1.00;;;;;;;;;;5021877;28;20133;-54
2021/03/15 10:24:57;;;;;;;3.35;0.90;;;;;;;;;;5031379;28;20044;-54
2021/03/15 10:27:30;;;;;;;3.42;1.20;;;;;;;;;;5025667;28;20129;-55
2021/03/15 10:30:01;;;;;;;3.30;1.00;;;;;;;;;;5031530;28;20041;-52
2021/03/15 10:32:28;;;;;;;6.82;1.10;;;;;;;;;;5023795;28;20110;-55
2021/03/15 10:34:56;;;;;;;5.60;1.13;;;;;;;;;;5026432;28;20041;-54
2021/03/15 10:37:22;;;;;;;5.15;1.10;;;;;;;;;;5029557;28;20044;-55
2021/03/15 10:39:48;;;;;;;3.35;1.20;;;;;;;;;;5031442;28;20195;-56
2021/03/15 10:42:16;;;;;;;3.47;1.10;;;;;;;;;;5031395;28;20033;-55
2021/03/15 10:44:42;;;;;;;6.70;1.17;;;;;;;;;;5031568;28;20053;-54
2021/03/15 10:47:10;;;;;;;5.18;1.20;;;;;;;;;;5030502;28;20731;-54
2021/03/15 10:49:37;;;;;;;5.35;1.15;;;;;;;;;;5029947;28;20048;-54
2021/03/15 10:52:03;;;;;;;4.70;1.20;;;;;;;;;;5032867;28;20136;-53
2021/03/15 10:54:29;;;;;;;4.07;1.25;;;;;;;;;;5029415;28;20128;-53
2021/03/15 10:57:14;;;;;;;3.63;0.88;;;;;;;;;;5032155;28;20041;-55
2021/03/15 10:59:40;;;;;;;3.92;1.05;;;;;;;;;;5028781;28;20046;-56
2021/03/15 11:02:07;;;;;;;3.85;1.13;;;;;;;;;;5030384;28;20038;-54
2021/03/15 11:04:40;;;;;;;4.75;1.45;;;;;;;;;;5029998;28;20150;-56
2021/03/15 11:07:18;;;;;;;7.10;1.10;;;;;;;;;;5030973;28;20067;-53
2021/03/15 11:09:53;;;;;;;4.43;1.30;;;;;;;;;;5027926;28;20051;-55
2021/03/15 11:12:33;;;;;;;9.95;1.30;;;;;;;;;;5026393;28;20739;-55
2021/03/15 11:15:10;;;;;;;5.32;1.42;;;;;;;;;;5031317;28;20045;-56
2021/03/15 11:17:35;;;;;;;4.40;1.10;;;;;;;;;;5031768;28;20509;-55
2021/03/15 11:20:03;;;;;;;4.80;1.23;;;;;;;;;;5024579;28;20048;-56
2021/03/15 11:22:29;;;;;;;5.78;1.20;;;;;;;;;;5028239;28;22231;-54
2021/03/15 11:25:08;;;;;;;4.80;1.35;;;;;;;;;;5017198;28;20049;-55
2021/03/15 11:27:36;;;;;;;5.80;1.40;;;;;;;;;;5029378;28;20041;-56
2021/03/15 11:30:03;;;;;;;3.97;1.08;;;;;;;;;;5034726;28;20076;-55
2021/03/15 11:32:29;;;;;;;4.55;1.10;;;;;;;;;;5035431;28;20072;-54
2021/03/15 11:34:55;;;;;;;4.50;1.30;;;;;;;;;;5035982;28;20077;-55
2021/03/15 11:37:27;;;;;;;9.38;1.10;;;;;;;;;;5035691;28;22730;-53
2021/03/15 11:39:53;;;;;;;7.93;1.40;;;;;;;;;;5034161;28;20037;-54
2021/03/15 11:42:32;;;;;;;4.20;0.90;;;;;;;;;;5035494;28;20099;-55
2021/03/15 11:44:58;;;;;;;3.35;0.98;;;;;;;;;;5034817;28;20484;-55
2021/03/15 11:47:24;;;;;;;5.70;1.35;;;;;;;;;;5033299;28;20045;-52
2021/03/15 11:49:50;;;;;;;6.07;1.80;;;;;;;;;;5031592;28;20073;-56
2021/03/15 11:52:28;;;;;;;5.72;1.10;;;;;;;;;;5031734;28;20140;-56
2021/03/15 11:54:54;;;;;;;4.38;1.50;;;;;;;;;;5026591;28;20037;-56
2021/03/15 11:57:20;;;;;;;3.50;1.10;;;;;;;;;;5027384;28;20055;-56
2021/03/15 11:59:46;;;;;;;3.72;1.08;;;;;;;;;;5028610;28;20144;-56
2021/03/15 12:02:12;;;;;;;4.85;1.10;;;;;;;;;;5034255;28;20033;-56
2021/03/15 12:04:40;;;;;;;8.75;1.23;;;;;;;;;;5031844;28;20044;-56
2021/03/15 12:07:06;;;;;;;2.97;0.90;;;;;;;;;;5027889;28;20045;-56
2021/03/15 12:09:32;;;;;;;4.28;1.10;;;;;;;;;;5030288;28;20162;-58
2021/03/15 12:11:58;;;;;;;8.02;1.30;;;;;;;;;;5031249;28;20554;-54
2021/03/15 12:14:24;;;;;;;6.40;1.00;;;;;;;;;;5010978;28;20040;-56
2021/03/15 12:16:49;;;;;;;5.03;1.40;;;;;;;;;;5028061;28;20040;-55
2021/03/15 12:19:15;;;;;;;6.43;1.65;;;;;;;;;;5022161;28;20064;-57
2021/03/15 12:21:41;;;;;;;9.90;1.63;;;;;;;;;;5024059;28;20099;-57
2021/03/15 12:24:07;;;;;;;7.68;1.40;;;;;;;;;;5024847;28;20040;-57
2021/03/15 12:26:35;;;;;;;5.93;1.27;;;;;;;;;;5026215;28;20045;-56
2021/03/15 12:29:01;;;;;;;4.47;1.35;;;;;;;;;;5034618;28;20464;-55
2021/03/15 12:31:26;;;;;;;5.40;1.13;;;;;;;;;;5035384;28;20123;-53
2021/03/15 12:33:52;;;;;;;6.32;1.30;;;;;;;;;;5009197;28;20052;-55
2021/03/15 12:36:18;;;;;;;8.45;1.40;;;;;;;;;;5023097;28;20055;-54
2021/03/15 12:38:44;;;;;;;5.47;1.50;;;;;;;;;;5026121;28;20146;-53
2021/03/15 12:41:10;;;;;;;8.18;1.50;;;;;;;;;;5034505;28;20048;-55
2021/03/15 12:43:36;;;;;;;6.60;1.50;;;;;;;;;;5033444;28;20878;-55
2021/03/15 12:46:02;;;;;;;5.93;1.38;;;;;;;;;;5026064;28;20078;-55
2021/03/15 12:48:28;;;;;;;10.18;1.40;;;;;;;;;;5029102;28;20570;-54
2021/03/15 12:50:54;;;;;;;10.07;1.42;;;;;;;;;;5033527;28;20045;-55
2021/03/15 12:53:19;;;;;;;7.50;1.30;;;;;;;;;;5031804;28;20498;-51
2021/03/15 12:55:45;;;;;;;5.82;1.38;;;;;;;;;;5030131;28;20060;-53
2021/03/15 12:58:11;;;;;;;10.50;1.70;;;;;;;;;;5025962;28;20143;-54
2021/03/15 13:00:37;;;;;;;6.30;1.38;;;;;;;;;;5030639;28;20056;-52
2021/03/15 13:03:03;;;;;;;11.93;1.73;;;;;;;;;;5033026;28;20051;-54
2021/03/15 13:05:31;;;;;;;9.25;1.30;;;;;;;;;;5024404;28;20490;-51
2021/03/15 13:07:57;;;;;;;18.23;2.38;;;;;;;;;;5025196;28;20521;-52
2021/03/15 13:10:23;;;;;;;11.50;1.83;;;;;;;;;;5026144;28;20659;-55
2021/03/15 13:12:49;;;;;;;8.02;1.63;;;;;;;;;;5024806;28;20048;-55
2021/03/15 13:15:15;;;;;;;14.13;1.95;;;;;;;;;;5019618;28;20045;-53
2021/03/15 13:17:41;;;;;;;32.15;2.13;;;;;;;;;;5021858;28;20108;-53
2021/03/15 13:20:07;;;;;;;33.20;2.92;;;;;;;;;;5032796;28;20136;-55
2021/03/15 13:22:33;;;;;;;35.30;3.55;;;;;;;;;;5024405;28;20045;-53
2021/03/15 13:24:59;;;;;;;23.50;2.55;;;;;;;;;;5024561;28;20045;-53
2021/03/15 13:27:25;;;;;;;14.95;2.38;;;;;;;;;;5031856;28;20045;-56
2021/03/15 13:29:51;;;;;;;13.40;1.48;;;;;;;;;;5013114;28;20044;-55
2021/03/15 13:32:17;;;;;;;12.50;1.63;;;;;;;;;;5032824;28;20051;-56
2021/03/15 13:34:43;;;;;;;10.07;1.55;;;;;;;;;;5029024;28;21308;-56
2021/03/15 13:37:09;;;;;;;28.30;4.05;;;;;;;;;;5011268;28;20045;-53
2021/03/15 13:39:35;;;;;;;11.75;1.45;;;;;;;;;;5030237;28;20029;-55
2021/03/15 13:42:01;;;;;;;24.63;2.47;;;;;;;;;;5031574;28;20136;-53
2021/03/15 13:44:27;;;;;;;13.07;2.15;;;;;;;;;;5021599;28;20550;-56
2021/03/15 13:46:52;;;;;;;14.15;2.13;;;;;;;;;;5031333;28;20506;-57
2021/03/15 13:49:18;;;;;;;20.55;1.90;;;;;;;;;;5024787;28;20037;-54
2021/03/15 13:51:44;;;;;;;6.15;1.88;;;;;;;;;;5021149;28;20932;-56
2021/03/15 13:54:10;;;;;;;20.92;1.70;;;;;;;;;;5030227;28;20531;-53
2021/03/15 13:56:36;;;;;;;26.13;1.67;;;;;;;;;;5027999;28;20068;-53
2021/03/15 13:59:02;;;;;;;13.63;1.15;;;;;;;;;;5030213;28;20041;-54
2021/03/15 14:01:28;;;;;;;9.77;1.30;;;;;;;;;;5030467;28;20477;-56
2021/03/15 14:03:54;;;;;;;15.75;2.47;;;;;;;;;;5030773;28;20055;-55
2021/03/15 14:06:20;;;;;;;3.67;1.02;;;;;;;;;;5030568;28;20049;-54
2021/03/15 14:08:46;;;;;;;5.45;1.05;;;;;;;;;;5024135;28;20037;-55
2021/03/15 14:11:11;;;;;;;6.95;1.45;;;;;;;;;;5025994;28;20042;-56
2021/03/15 14:13:37;;;;;;;2.88;1.00;;;;;;;;;;5020751;28;20045;-56
2021/03/15 14:16:04;;;;;;;5.50;1.25;;;;;;;;;;5029747;28;20033;-54
2021/03/15 14:18:30;;;;;;;5.82;1.02;;;;;;;;;;5029969;28;20040;-55
2021/03/15 14:20:56;;;;;;;11.18;1.48;;;;;;;;;;5032137;28;20032;-54
2021/03/15 14:23:22;;;;;;;5.10;1.33;;;;;;;;;;5030033;28;20040;-53
2021/03/15 14:25:48;;;;;;;4.07;0.93;;;;;;;;;;5031395;28;20056;-55
2021/03/15 14:28:14;;;;;;;3.00;1.02;;;;;;;;;;5026314;28;20029;-55
2021/03/15 14:30:40;;;;;;;5.80;1.08;;;;;;;;;;5029173;28;21325;-54
2021/03/15 14:33:06;;;;;;;5.65;0.80;;;;;;;;;;5032058;28;20037;-55
2021/03/15 14:35:31;;;;;;;6.60;1.58;;;;;;;;;;5030102;28;20067;-55
2021/03/15 14:37:57;;;;;;;3.80;1.20;;;;;;;;;;5031414;28;20120;-55
2021/03/15 14:40:23;;;;;;;3.00;0.90;;;;;;;;;;5004347;28;20129;-54
2021/03/15 14:42:49;;;;;;;3.50;1.00;;;;;;;;;;5029847;28;20064;-55
2021/03/15 14:45:15;;;;;;;3.63;1.17;;;;;;;;;;5032430;28;20672;-51
2021/03/15 14:47:41;;;;;;;8.30;0.90;;;;;;;;;;5030761;28;20073;-55